Hunt, Texas
Current Conditions -  °F | °C
As of 5:15 PM on Thursday 27 Nov 2014 (Local Time) from KERV Reporting Station
Clear Clear  
Wind Chill: 61°   Ceiling: Unl
Heat Index: 61°   Visibility: 10mi
Dew Point: 32°   Wind: 7mph
Humidity: 34%   Direction: 100°E
Pressure: 30.39"   Gusts: NA
Location:  30.07°N, 99.34°W
Report Text: KERV 272315Z AUTO 10006KT 10SM CLR 16/00 A3039 RMK AO2 T01590001
Loading
Personal Weather Stations






























Interactive Weather Map New forecast layout! Learn more

10-Day Weather Forecast

Advertisements
Track Severe Weather on mobile